createdAt,value
2022-11-22T00:00:38.315Z,11.67
2022-11-22T00:05:41.198Z,12.73
2022-11-22T00:10:44.150Z,13.60
2022-11-22T00:15:58.982Z,11.77
2022-11-22T00:21:07.065Z,12.20
2022-11-22T00:26:12.168Z,11.60
2022-11-22T00:31:16.573Z,11.63
2022-11-22T00:36:19.444Z,11.80
2022-11-22T00:41:22.745Z,11.50
2022-11-22T00:46:27.104Z,12.20
2022-11-22T00:51:30.025Z,11.90
2022-11-22T00:56:33.203Z,12.97
2022-11-22T01:01:37.560Z,12.20
2022-11-22T01:06:40.488Z,14.20
2022-11-22T01:11:44.381Z,13.57
2022-11-22T01:16:49.585Z,12.90
2022-11-22T01:21:52.786Z,14.40
2022-11-22T01:26:56.381Z,13.37
2022-11-22T01:32:00.728Z,12.70
2022-11-22T01:37:03.723Z,12.33
2022-11-22T01:42:06.685Z,12.97
2022-11-22T01:47:14.212Z,12.80
2022-11-22T01:52:20.482Z,12.60
2022-11-22T01:57:26.115Z,13.57
2022-11-22T02:02:30.374Z,12.97
2022-11-22T02:07:41.021Z,13.37
2022-11-22T02:12:44.399Z,13.93
2022-11-22T02:17:48.654Z,12.03
2022-11-22T02:22:57.271Z,12.57
2022-11-22T02:28:01.608Z,12.60
2022-11-22T02:33:04.738Z,13.80
2022-11-22T02:38:10.507Z,13.73
2022-11-22T02:43:18.009Z,13.00
2022-11-22T02:48:20.872Z,14.73
2022-11-22T02:53:23.790Z,14.37
2022-11-22T02:58:28.090Z,15.30
2022-11-22T03:03:31.685Z,12.80
2022-11-22T03:08:35.033Z,14.20
2022-11-22T03:13:39.438Z,14.53
2022-11-22T03:18:42.398Z,13.67
2022-11-22T03:23:45.267Z,11.83
2022-11-22T03:28:49.491Z,12.27
2022-11-22T03:33:52.503Z,11.53
2022-11-22T03:38:55.380Z,12.93
2022-11-22T03:43:59.746Z,12.20
2022-11-22T03:49:02.642Z,13.47
2022-11-22T03:54:05.988Z,13.50
2022-11-22T03:59:10.282Z,13.50
2022-11-22T04:04:13.318Z,15.07
2022-11-22T04:09:16.549Z,14.27
2022-11-22T04:14:38.054Z,13.60
2022-11-22T04:20:01.717Z,12.63
2022-11-22T04:25:17.078Z,14.70
2022-11-22T04:30:21.511Z,13.53
2022-11-22T04:35:24.371Z,14.90
2022-11-22T04:40:27.246Z,14.13
2022-11-22T04:45:31.549Z,14.10
2022-11-22T04:50:52.442Z,13.40
2022-11-22T04:55:55.445Z,14.70
2022-11-22T05:01:00.195Z,13.70
2022-11-22T05:06:04.267Z,13.40
2022-11-22T05:11:07.209Z,18.07
2022-11-22T05:16:13.614Z,15.60
2022-11-22T05:21:16.525Z,15.90
2022-11-22T05:26:19.548Z,16.97
2022-11-22T05:31:27.171Z,18.93
2022-11-22T05:36:32.900Z,15.67
2022-11-22T05:41:35.878Z,15.57
2022-11-22T05:46:40.149Z,14.40
2022-11-22T05:51:43.077Z,16.67
2022-11-22T05:56:45.941Z,13.03
2022-11-22T06:01:50.183Z,14.53
2022-11-22T06:06:53.099Z,15.90
2022-11-22T06:11:55.998Z,16.33
2022-11-22T06:17:00.265Z,16.97
2022-11-22T06:22:03.163Z,15.87
2022-11-22T06:27:06.000Z,15.97
2022-11-22T06:32:10.251Z,16.87
2022-11-22T06:37:15.984Z,18.37
2022-11-22T06:42:19.265Z,14.43
2022-11-22T06:47:23.542Z,18.53
2022-11-22T06:52:27.116Z,15.83
2022-11-22T06:57:29.953Z,13.17
2022-11-22T07:02:34.212Z,13.63
2022-11-22T07:07:37.142Z,15.93
2022-11-22T07:12:40.107Z,16.57
2022-11-22T07:17:44.649Z,16.40
2022-11-22T07:22:48.759Z,16.37
2022-11-22T07:27:53.414Z,15.17
2022-11-22T07:32:57.633Z,13.87
2022-11-22T07:38:00.603Z,11.83
2022-11-22T07:43:04.200Z,13.33
2022-11-22T07:48:08.728Z,14.50
2022-11-22T07:53:11.734Z,14.40
2022-11-22T07:58:14.668Z,14.00
2022-11-22T08:03:22.683Z,14.07
2022-11-22T08:08:28.574Z,13.10
2022-11-22T08:13:32.305Z,13.13
2022-11-22T08:18:37.696Z,15.93
2022-11-22T08:23:41.638Z,15.20
2022-11-22T08:28:44.900Z,14.60
2022-11-22T08:33:49.489Z,12.37
2022-11-22T08:38:52.360Z,12.90
2022-11-22T08:43:55.364Z,11.67
2022-11-22T08:48:59.632Z,12.27
2022-11-22T08:54:02.484Z,12.23
2022-11-22T08:59:05.476Z,14.07
2022-11-22T09:04:10.721Z,12.10
2022-11-22T09:14:36.786Z,11.93
2022-11-22T09:19:41.020Z,11.90
2022-11-22T09:24:43.939Z,16.60
2022-11-22T09:29:46.851Z,14.07
2022-11-22T09:34:51.125Z,12.90
2022-11-22T09:39:54.009Z,11.03
2022-11-22T09:45:16.132Z,12.40
2022-11-22T09:50:29.631Z,10.23
2022-11-22T09:55:37.715Z,10.93
2022-11-22T10:00:44.384Z,12.10
2022-11-22T10:05:53.709Z,10.60
2022-11-22T10:10:59.649Z,9.73
2022-11-22T10:16:08.522Z,10.47
2022-11-22T10:21:15.042Z,11.10
2022-11-22T10:26:25.067Z,10.23
2022-11-22T10:31:33.808Z,10.63
2022-11-22T10:36:44.873Z,9.97
2022-11-22T10:42:01.654Z,10.47
2022-11-22T10:47:15.050Z,11.37
2022-11-22T10:52:29.598Z,11.23
2022-11-22T10:57:39.735Z,10.10
2022-11-22T11:03:06.201Z,11.37
2022-11-22T11:08:42.049Z,13.53
2022-11-22T11:13:49.394Z,15.97
2022-11-22T11:18:57.080Z,11.43
2022-11-22T11:24:01.367Z,11.43
2022-11-22T11:29:38.431Z,9.90
2022-11-22T11:34:45.628Z,10.80
2022-11-22T11:39:49.938Z,10.30
2022-11-22T11:44:53.146Z,9.87
2022-11-22T11:49:56.042Z,8.57
2022-11-22T11:55:03.413Z,9.13
2022-11-22T12:00:20.281Z,10.17
2022-11-22T12:05:29.006Z,10.87
2022-11-22T12:10:45.250Z,10.77
2022-11-22T12:15:57.966Z,10.00
2022-11-22T12:21:07.462Z,11.23
2022-11-22T12:26:11.951Z,13.63
2022-11-22T12:31:25.051Z,13.30
2022-11-22T12:36:43.235Z,12.43
2022-11-22T12:41:51.061Z,13.33
2022-11-22T12:46:58.534Z,12.80
2022-11-22T12:52:10.651Z,14.00
2022-11-22T12:57:24.194Z,13.37
2022-11-22T13:02:36.236Z,13.30
2022-11-22T13:07:54.909Z,11.90
2022-11-22T13:13:01.946Z,12.50
2022-11-22T13:18:10.524Z,13.80
2022-11-22T13:23:36.070Z,12.10
2022-11-22T13:28:42.079Z,11.83
2022-11-22T13:33:54.924Z,13.13
2022-11-22T13:38:59.592Z,12.50
2022-11-22T13:44:18.877Z,10.80
2022-11-22T13:49:46.821Z,12.07
2022-11-22T13:55:28.928Z,10.63
2022-11-22T14:00:42.867Z,11.70
2022-11-22T14:05:49.910Z,11.27
2022-11-22T14:11:12.107Z,11.00
2022-11-22T14:16:30.331Z,10.03
2022-11-22T14:21:57.426Z,9.13
2022-11-22T14:27:11.160Z,10.33
2022-11-22T14:32:19.204Z,11.03
2022-11-22T14:37:46.652Z,10.77
2022-11-22T14:42:53.871Z,11.40
2022-11-22T14:48:06.496Z,10.07
2022-11-22T14:53:21.198Z,12.27
2022-11-22T14:58:29.576Z,13.00
2022-11-22T15:09:16.117Z,10.30
2022-11-22T15:09:53.325Z,12.33
2022-11-22T15:58:57.173Z,14.80
2022-11-22T16:04:00.737Z,15.30
2022-11-22T16:09:06.445Z,14.73
2022-11-22T16:14:41.228Z,14.03
2022-11-22T16:19:44.184Z,15.63
2022-11-22T16:24:48.557Z,16.63
2022-11-22T16:29:52.561Z,16.40
2022-11-22T16:35:21.720Z,15.60
2022-11-22T16:40:19.776Z,9.83
2022-11-22T16:45:23.381Z,14.37
2022-11-22T16:50:26.428Z,12.17
2022-11-22T16:55:30.704Z,11.07
2022-11-22T17:00:35.388Z,14.23
2022-11-22T17:05:38.440Z,12.10
2022-11-22T17:10:45.520Z,14.77
2022-11-22T17:15:48.996Z,11.43
2022-11-22T17:20:51.905Z,12.93
2022-11-22T17:25:56.173Z,12.80
2022-11-22T17:31:00.246Z,10.70
2022-11-22T17:36:03.130Z,10.17
2022-11-22T17:41:07.454Z,15.33
2022-11-22T17:46:10.351Z,20.00
2022-11-22T17:51:14.034Z,18.90
2022-11-22T17:56:18.361Z,12.50
2022-11-22T18:01:22.800Z,10.80
2022-11-22T18:06:26.798Z,16.10
2022-11-22T18:11:31.123Z,11.50
2022-11-22T18:16:34.024Z,10.57
2022-11-22T18:21:38.136Z,11.03
2022-11-22T18:26:42.611Z,11.50
2022-11-22T18:31:52.310Z,11.00
2022-11-22T18:37:09.630Z,12.10
2022-11-22T18:42:16.780Z,12.37
2022-11-22T18:47:19.769Z,16.30
2022-11-22T18:52:23.113Z,14.60
2022-11-22T18:57:27.666Z,16.20
2022-11-22T19:02:30.590Z,16.33
2022-11-22T19:07:33.500Z,16.50
2022-11-22T19:12:37.746Z,16.60
2022-11-22T19:17:41.032Z,18.13
2022-11-22T19:22:43.932Z,18.93
2022-11-22T19:27:49.681Z,21.60
2022-11-22T19:32:52.569Z,16.47
2022-11-22T19:37:55.531Z,17.40
2022-11-22T19:42:59.806Z,26.60
2022-11-22T19:48:02.667Z,27.37
2022-11-22T19:53:05.904Z,30.37
2022-11-22T19:58:10.186Z,23.67
2022-11-22T20:03:14.394Z,24.13
2022-11-22T20:08:17.286Z,22.67
2022-11-22T20:13:21.507Z,19.13
2022-11-22T20:18:24.418Z,20.83
2022-11-22T20:23:27.318Z,18.17
2022-11-22T20:28:31.940Z,17.27
2022-11-22T20:33:35.920Z,18.00
2022-11-22T20:38:40.522Z,12.70
2022-11-22T20:43:45.277Z,16.20
2022-11-22T20:48:49.242Z,19.67
2022-11-22T20:53:52.669Z,16.50
2022-11-22T20:58:56.944Z,14.33
2022-11-22T21:03:59.921Z,23.10
2022-11-22T21:09:03.009Z,18.90
2022-11-22T21:14:07.403Z,18.97
2022-11-22T21:19:10.710Z,15.43
2022-11-22T21:24:14.131Z,16.27
2022-11-22T21:29:18.362Z,22.40
2022-11-22T21:34:21.219Z,15.73
2022-11-22T21:39:24.101Z,17.63
2022-11-22T21:44:28.442Z,14.37
2022-11-22T21:49:31.524Z,16.70
2022-11-22T21:54:34.587Z,13.43
2022-11-22T21:59:38.842Z,12.23
2022-11-22T22:04:41.754Z,10.80
2022-11-22T22:09:44.650Z,12.07
2022-11-22T22:14:48.855Z,14.40
2022-11-22T22:19:53.271Z,14.60
2022-11-22T22:24:56.136Z,13.77
2022-11-22T22:30:00.461Z,12.37
2022-11-22T22:35:03.796Z,11.03
2022-11-22T22:40:07.713Z,15.17
2022-11-22T22:45:12.558Z,10.60
2022-11-22T22:50:16.149Z,10.00
2022-11-22T22:55:19.066Z,11.27
2022-11-22T23:00:23.524Z,8.97
2022-11-22T23:05:26.444Z,10.20
2022-11-22T23:10:29.366Z,9.30
2022-11-22T23:15:56.849Z,18.03
2022-11-22T23:20:59.834Z,9.13
2022-11-22T23:26:04.040Z,10.90
2022-11-22T23:31:10.097Z,9.67
2022-11-22T23:36:14.554Z,9.57
2022-11-22T23:41:20.054Z,9.30
2022-11-22T23:46:27.395Z,9.47
2022-11-22T23:51:31.721Z,10.10
2022-11-22T23:56:36.365Z,9.70
